Time;durP1;ratioP1;P1;durP2;ratioP2;P2;SDS_P1;SDS_P2;PMS_P1;PMS_P2;Temp;Humidity;BMP_temperature;BMP_pressure;BME280_temperature;BME280_humidity;BME280_pressure;Samples;Min_cycle;Max_cycle;Signal;HPM_P1;HPM_P2
2023/05/12 00:00:11;;;;;;;15.45;8.45;;;12.70;99.90;;;;;;7402738;19;19918;-78
2023/05/12 00:02:40;;;;;;;16.13;9.63;;;12.80;99.90;;;;;;7400098;19;19918;-79
2023/05/12 00:05:10;;;;;;;14.35;8.93;;;12.80;99.90;;;;;;7401059;19;19955;-78
2023/05/12 00:07:42;;;;;;;18.83;9.32;;;12.80;99.90;;;;;;7399974;19;19937;-79
2023/05/12 00:10:13;;;;;;;17.83;9.77;;;12.60;99.90;;;;;;7396474;19;19922;-78
2023/05/12 00:12:43;;;;;;;17.95;9.13;;;12.70;99.90;;;;;;7401828;19;19922;-79
2023/05/12 00:15:12;;;;;;;17.85;9.30;;;12.80;99.90;;;;;;7400767;19;19914;-79
2023/05/12 00:17:41;;;;;;;21.05;10.10;;;12.60;99.90;;;;;;7402284;19;20330;-79
2023/05/12 00:20:11;;;;;;;17.70;9.70;;;12.70;99.90;;;;;;7402123;19;19946;-79
2023/05/12 00:22:43;;;;;;;19.08;9.73;;;12.80;99.90;;;;;;7402443;19;19925;-80
2023/05/12 00:25:12;;;;;;;15.93;9.13;;;12.60;99.90;;;;;;7403287;19;20001;-79
2023/05/12 00:27:41;;;;;;;20.55;9.43;;;12.60;99.90;;;;;;7399941;19;20285;-79
2023/05/12 00:30:11;;;;;;;19.88;10.35;;;12.50;99.90;;;;;;7400532;19;19929;-79
2023/05/12 00:32:43;;;;;;;20.35;9.90;;;12.60;99.90;;;;;;7398006;19;19922;-78
2023/05/12 00:35:12;;;;;;;19.73;9.63;;;12.60;99.90;;;;;;7398464;19;19932;-79
2023/05/12 00:37:44;;;;;;;18.52;9.40;;;12.70;99.90;;;;;;7402022;19;19941;-79
2023/05/12 00:40:13;;;;;;;20.10;10.38;;;12.70;99.90;;;;;;7399917;19;19982;-79
2023/05/12 00:42:42;;;;;;;20.10;11.90;;;12.70;99.90;;;;;;7400925;19;19928;-78
2023/05/12 00:45:12;;;;;;;19.05;10.70;;;12.80;99.90;;;;;;7396460;19;19929;-79
2023/05/12 00:47:42;;;;;;;20.90;10.10;;;12.60;99.90;;;;;;7399942;19;20375;-79
2023/05/12 00:50:11;;;;;;;17.27;10.10;;;12.80;99.90;;;;;;7400366;19;19937;-79
2023/05/12 00:52:43;;;;;;;14.95;8.38;;;12.70;99.90;;;;;;7402825;19;19923;-79
2023/05/12 00:55:12;;;;;;;26.58;11.93;;;12.80;99.90;;;;;;7395469;19;19918;-78
2023/05/12 00:57:41;;;;;;;21.15;11.20;;;12.70;99.90;;;;;;7397511;19;19921;-79
2023/05/12 01:00:11;;;;;;;20.30;10.75;;;12.60;99.90;;;;;;7403168;19;20366;-78
2023/05/12 01:02:41;;;;;;;20.52;11.38;;;12.80;99.90;;;;;;7397974;19;19933;-80
2023/05/12 01:05:11;;;;;;;22.25;11.63;;;12.70;99.90;;;;;;7399811;19;19923;-78
2023/05/12 01:07:44;;;;;;;22.60;11.45;;;12.80;99.90;;;;;;7400816;19;19922;-78
2023/05/12 01:10:20;;;;;;;20.33;11.23;;;12.80;99.90;;;;;;7393755;19;20640;-79
2023/05/12 01:12:49;;;;;;;25.20;12.10;;;12.50;99.90;;;;;;7398233;19;19917;-80
2023/05/12 01:15:19;;;;;;;23.63;11.57;;;12.70;99.90;;;;;;7395358;19;19919;-78
2023/05/12 01:17:57;;;;;;;25.08;12.13;;;12.50;99.90;;;;;;7396350;19;19923;-79
2023/05/12 01:20:28;;;;;;;20.35;11.77;;;12.60;99.90;;;;;;7398968;19;19926;-77
2023/05/12 01:23:00;;;;;;;23.25;11.50;;;12.70;99.90;;;;;;7400457;19;19922;-77
2023/05/12 01:25:34;;;;;;;21.92;11.68;;;12.70;99.90;;;;;;7397255;19;20233;-79
2023/05/12 01:28:07;;;;;;;19.13;11.13;;;12.70;99.90;;;;;;7398739;19;19926;-78
2023/05/12 01:30:40;;;;;;;25.80;11.98;;;12.60;99.90;;;;;;7399335;19;19925;-78
2023/05/12 01:33:09;;;;;;;26.92;11.90;;;12.50;99.90;;;;;;7397067;19;19950;-79
2023/05/12 01:35:38;;;;;;;21.90;11.45;;;12.60;99.90;;;;;;7395076;19;19953;-79
2023/05/12 01:38:07;;;;;;;22.80;12.25;;;12.60;99.90;;;;;;7398355;19;20356;-78
2023/05/12 01:40:36;;;;;;;22.85;11.38;;;12.50;99.90;;;;;;7399691;19;19946;-79
2023/05/12 01:43:08;;;;;;;22.67;11.35;;;12.60;99.90;;;;;;7397287;19;19998;-79
2023/05/12 01:45:37;;;;;;;21.65;10.80;;;12.60;99.90;;;;;;7399268;19;19918;-79
2023/05/12 01:48:07;;;;;;;20.08;11.10;;;12.60;99.90;;;;;;7398515;19;20394;-79
2023/05/12 01:50:36;;;;;;;24.63;11.88;;;12.60;99.90;;;;;;7395671;19;20351;-78
2023/05/12 01:53:05;;;;;;;22.25;11.77;;;12.60;99.90;;;;;;7398674;19;19922;-78
2023/05/12 01:55:34;;;;;;;21.25;10.73;;;12.60;99.90;;;;;;7397754;19;19933;-78
2023/05/12 01:58:03;;;;;;;24.38;10.98;;;12.60;99.90;;;;;;7399567;19;19918;-79
2023/05/12 02:00:35;;;;;;;19.55;10.27;;;12.50;99.90;;;;;;7405823;19;20389;-77
2023/05/12 02:03:04;;;;;;;28.05;11.73;;;12.50;99.90;;;;;;7405487;19;19927;-80
2023/05/12 02:05:33;;;;;;;22.48;11.73;;;12.70;99.90;;;;;;7399436;19;20015;-79
2023/05/12 02:08:02;;;;;;;21.55;11.20;;;12.50;99.90;;;;;;7404434;19;19921;-79
2023/05/12 02:10:31;;;;;;;18.55;10.65;;;12.60;99.90;;;;;;7402513;19;19918;-79
2023/05/12 02:13:01;;;;;;;23.30;11.23;;;12.50;99.90;;;;;;7406107;19;20006;-79
2023/05/12 02:15:30;;;;;;;22.08;11.57;;;12.50;99.90;;;;;;7403523;19;19918;-79
2023/05/12 02:18:02;;;;;;;23.80;10.63;;;12.60;99.90;;;;;;7406588;19;19926;-79
2023/05/12 02:20:31;;;;;;;23.33;10.77;;;12.40;99.90;;;;;;7405057;19;20293;-80
2023/05/12 02:23:01;;;;;;;23.27;10.98;;;12.50;99.90;;;;;;7406241;19;19923;-80
2023/05/12 02:25:30;;;;;;;22.85;10.52;;;12.40;99.90;;;;;;7401989;19;20542;-79
2023/05/12 02:27:59;;;;;;;24.95;12.02;;;12.40;99.90;;;;;;7403816;19;20320;-80
2023/05/12 02:30:28;;;;;;;20.42;11.05;;;12.30;99.90;;;;;;7404662;19;19933;-80
2023/05/12 02:32:57;;;;;;;21.55;12.07;;;12.40;99.90;;;;;;7402913;19;19929;-80
2023/05/12 02:35:29;;;;;;;20.85;11.68;;;12.40;99.90;;;;;;7403455;19;19986;-80
2023/05/12 02:37:57;;;;;;;22.45;12.35;;;12.40;99.90;;;;;;7404370;19;19921;-78
2023/05/12 02:40:26;;;;;;;21.10;10.82;;;12.40;99.90;;;;;;7398763;19;19939;-79
2023/05/12 02:42:55;;;;;;;21.38;10.55;;;12.40;99.90;;;;;;7402969;19;19990;-79
2023/05/12 02:45:24;;;;;;;23.45;11.23;;;12.20;99.90;;;;;;7399860;19;19922;-78
2023/05/12 02:47:53;;;;;;;18.27;9.52;;;12.30;99.90;;;;;;7400012;19;19927;-78
2023/05/12 02:50:23;;;;;;;19.83;10.20;;;12.20;99.90;;;;;;7402074;19;20267;-77
2023/05/12 02:52:55;;;;;;;19.90;10.25;;;12.30;99.90;;;;;;7400531;19;19986;-79
2023/05/12 02:55:23;;;;;;;19.60;10.43;;;12.20;99.90;;;;;;7398089;19;19926;-78
2023/05/12 02:57:52;;;;;;;18.20;9.80;;;12.10;99.90;;;;;;7400755;19;20015;-78
2023/05/12 03:00:21;;;;;;;19.17;9.82;;;12.20;99.90;;;;;;7404044;19;19990;-78
2023/05/12 03:02:50;;;;;;;18.40;10.05;;;12.10;99.90;;;;;;7401110;19;20403;-79
2023/05/12 03:05:19;;;;;;;22.10;10.88;;;12.00;99.90;;;;;;7401244;19;19933;-78
2023/05/12 03:07:50;;;;;;;18.08;10.30;;;12.20;99.90;;;;;;7402904;19;19922;-78
2023/05/12 03:10:22;;;;;;;20.95;10.80;;;12.10;99.90;;;;;;7398232;19;19927;-79
2023/05/12 03:12:51;;;;;;;20.55;10.00;;;12.10;99.90;;;;;;7403342;19;19933;-80
2023/05/12 03:15:20;;;;;;;22.45;11.00;;;12.00;99.90;;;;;;7397761;19;19982;-80
2023/05/12 03:17:49;;;;;;;20.15;10.20;;;12.20;99.90;;;;;;7402315;19;19918;-79
2023/05/12 03:20:18;;;;;;;23.85;10.27;;;12.10;99.90;;;;;;7401787;19;19970;-80
2023/05/12 03:22:47;;;;;;;18.77;10.70;;;12.10;99.90;;;;;;7395438;19;19922;-79
2023/05/12 03:25:17;;;;;;;23.92;11.52;;;12.20;99.90;;;;;;7399876;19;19942;-79
2023/05/12 03:27:48;;;;;;;21.48;10.40;;;12.10;99.90;;;;;;7400967;19;19919;-81
2023/05/12 03:30:17;;;;;;;24.02;11.13;;;12.20;99.90;;;;;;7402192;19;19933;-79
2023/05/12 03:32:46;;;;;;;20.50;9.95;;;12.20;99.90;;;;;;7399407;19;20320;-79
2023/05/12 03:35:15;;;;;;;22.33;11.38;;;12.20;99.90;;;;;;7403260;19;19922;-79
2023/05/12 03:37:45;;;;;;;20.63;10.90;;;12.20;99.90;;;;;;7397193;19;20693;-81
2023/05/12 03:40:17;;;;;;;23.85;11.07;;;12.10;99.90;;;;;;7402890;19;19918;-80
2023/05/12 03:42:48;;;;;;;23.15;11.00;;;12.10;99.90;;;;;;7400021;19;19922;-79
2023/05/12 03:45:18;;;;;;;29.80;11.45;;;12.20;99.90;;;;;;7400794;19;19933;-80
2023/05/12 03:47:46;;;;;;;22.35;11.73;;;12.20;99.90;;;;;;7402483;19;19915;-79
2023/05/12 03:50:16;;;;;;;23.50;11.25;;;12.10;99.90;;;;;;7404781;19;20002;-79
2023/05/12 03:52:45;;;;;;;22.38;11.80;;;12.20;99.90;;;;;;7397914;19;21452;-79
2023/05/12 03:55:14;;;;;;;26.30;12.88;;;12.10;99.90;;;;;;7400299;19;19919;-80
2023/05/12 03:57:43;;;;;;;25.08;11.13;;;12.30;99.90;;;;;;7402723;19;19923;-79
2023/05/12 04:00:16;;;;;;;24.77;11.65;;;12.20;99.90;;;;;;7399321;19;19928;-80
2023/05/12 04:02:45;;;;;;;25.55;12.65;;;12.10;99.90;;;;;;7401058;19;19942;-80
2023/05/12 04:05:14;;;;;;;30.08;12.48;;;12.20;99.90;;;;;;7401418;19;20332;-80
2023/05/12 04:07:43;;;;;;;25.58;12.43;;;12.20;99.90;;;;;;7401100;19;20344;-80
2023/05/12 04:10:12;;;;;;;24.55;13.00;;;12.10;99.90;;;;;;7400029;19;19923;-80
2023/05/12 04:12:41;;;;;;;24.75;11.77;;;12.20;99.90;;;;;;7402942;19;20396;-78
2023/05/12 04:15:13;;;;;;;29.33;12.70;;;12.20;99.90;;;;;;7400358;19;19978;-80
2023/05/12 04:17:45;;;;;;;24.92;12.65;;;12.20;99.90;;;;;;7399414;19;20283;-79
2023/05/12 04:20:14;;;;;;;22.95;11.73;;;12.20;99.90;;;;;;7401363;19;20382;-79
2023/05/12 04:22:43;;;;;;;29.67;13.48;;;12.00;99.90;;;;;;7401788;19;19914;-78
2023/05/12 04:25:12;;;;;;;23.88;12.50;;;12.20;99.90;;;;;;7399473;19;20001;-78
2023/05/12 04:27:41;;;;;;;27.55;12.45;;;12.20;99.90;;;;;;7398902;19;19915;-79
2023/05/12 04:30:11;;;;;;;25.00;12.48;;;12.10;99.90;;;;;;7401536;19;20392;-78
2023/05/12 04:32:43;;;;;;;22.70;12.38;;;12.20;99.90;;;;;;7399857;19;19915;-78
2023/05/12 04:35:12;;;;;;;23.27;11.50;;;12.30;99.90;;;;;;7398060;19;19937;-79
2023/05/12 04:37:41;;;;;;;25.92;12.70;;;12.10;99.90;;;;;;7401677;19;19918;-79
2023/05/12 04:40:11;;;;;;;26.85;12.77;;;12.10;99.90;;;;;;7400905;19;19939;-79
2023/05/12 04:42:40;;;;;;;23.85;11.90;;;12.30;99.90;;;;;;7400182;19;20339;-79
2023/05/12 04:45:10;;;;;;;24.48;13.05;;;12.10;99.90;;;;;;7395752;19;19922;-79
2023/05/12 04:47:39;;;;;;;24.55;12.43;;;12.20;99.90;;;;;;7401245;19;19990;-79
2023/05/12 04:50:12;;;;;;;22.60;12.02;;;12.10;99.90;;;;;;7399746;19;19926;-79
2023/05/12 04:52:41;;;;;;;24.38;12.20;;;12.20;99.90;;;;;;7399835;19;19922;-79
2023/05/12 04:55:11;;;;;;;23.45;12.18;;;12.10;99.90;;;;;;7396547;19;19926;-79
2023/05/12 04:57:40;;;;;;;27.08;14.23;;;10.80;99.90;;;;;;7396572;19;19922;-78
2023/05/12 05:00:11;;;;;;;21.55;12.15;;;12.10;99.90;;;;;;7396691;19;19986;-78
2023/05/12 05:02:40;;;;;;;28.58;12.98;;;12.30;99.90;;;;;;7397885;19;19994;-79
2023/05/12 05:05:12;;;;;;;29.08;12.50;;;12.20;99.90;;;;;;7395554;19;19998;-78
2023/05/12 05:07:41;;;;;;;27.67;13.35;;;11.00;99.90;;;;;;7391127;19;20019;-81
2023/05/12 05:10:11;;;;;;;26.38;12.20;;;12.20;99.90;;;;;;7395538;19;19933;-80
2023/05/12 05:12:40;;;;;;;30.55;14.13;;;12.30;99.90;;;;;;7396352;19;20382;-76
2023/05/12 05:15:11;;;;;;;22.52;10.93;;;12.20;99.90;;;;;;7396728;19;19981;-75
2023/05/12 05:17:41;;;;;;;23.02;11.35;;;12.40;99.90;;;;;;7391978;19;19950;-76
2023/05/12 05:20:14;;;;;;;22.73;12.05;;;12.30;99.90;;;;;;7397661;19;20316;-75
2023/05/12 05:22:43;;;;;;;27.48;12.52;;;12.20;99.90;;;;;;7391424;19;19919;-76
2023/05/12 05:25:13;;;;;;;22.63;12.25;;;12.40;99.90;;;;;;7392447;19;20469;-76
2023/05/12 05:27:41;;;;;;;24.95;11.35;;;12.40;99.90;;;;;;7393719;19;19911;-76
2023/05/12 05:30:11;;;;;;;25.95;14.35;;;10.90;99.90;;;;;;7391609;19;19972;-76
2023/05/12 05:32:40;;;;;;;26.42;12.50;;;12.20;99.90;;;;;;7399707;19;20019;-76
2023/05/12 05:35:10;;;;;;;29.15;13.70;;;12.40;99.90;;;;;;7404971;19;19946;-75
2023/05/12 05:37:42;;;;;;;25.55;12.57;;;12.30;99.90;;;;;;7404157;19;19926;-76
2023/05/12 05:40:11;;;;;;;;;;;12.50;99.90;;;;;;7408904;19;19927;-77
2023/05/12 05:42:40;;;;;;;;;;;12.40;99.90;;;;;;7408762;19;19937;-75
2023/05/12 05:45:10;;;;;;;29.40;14.05;;;12.50;99.90;;;;;;7408971;19;19918;-75
2023/05/12 05:47:39;;;;;;;29.27;13.93;;;12.50;99.90;;;;;;7407686;19;19922;-76
2023/05/12 05:50:09;;;;;;;26.98;14.43;;;12.50;99.90;;;;;;7412119;19;19946;-76
2023/05/12 05:52:41;;;;;;;26.48;13.52;;;12.60;99.90;;;;;;7411574;19;20058;-76
2023/05/12 05:55:11;;;;;;;29.73;14.35;;;12.60;99.90;;;;;;7407555;19;19922;-76
2023/05/12 05:57:40;;;;;;;27.02;14.15;;;12.70;99.90;;;;;;7407614;19;20338;-77
2023/05/12 06:00:11;;;;;;;29.08;15.13;;;12.60;99.90;;;;;;7407640;19;19982;-74
2023/05/12 06:02:40;;;;;;;26.92;13.60;;;12.70;99.90;;;;;;7409334;19;19923;-76
2023/05/12 06:05:11;;;;;;;26.70;13.65;;;12.70;99.90;;;;;;7409845;19;20368;-74
2023/05/12 06:07:42;;;;;;;31.25;15.18;;;12.80;99.90;;;;;;7411768;19;19943;-74
2023/05/12 06:10:11;;;;;;;29.52;14.80;;;12.70;99.90;;;;;;7409897;19;20346;-75
2023/05/12 06:12:42;;;;;;;28.35;15.27;;;12.70;99.90;;;;;;7412597;19;20372;-75
2023/05/12 06:15:12;;;;;;;30.90;15.68;;;12.90;99.90;;;;;;7413036;19;19926;-76
2023/05/12 06:17:41;;;;;;;32.58;15.88;;;12.90;99.90;;;;;;7410102;19;19925;-75
2023/05/12 06:20:12;;;;;;;32.63;15.75;;;12.90;99.90;;;;;;7411609;19;19986;-75
2023/05/12 06:22:43;;;;;;;31.27;15.32;;;12.90;99.90;;;;;;7412448;19;19919;-74
2023/05/12 06:25:12;;;;;;;;;;;13.00;99.90;;;;;;7411873;19;19923;-73
2023/05/12 06:27:41;;;;;;;30.55;15.25;;;12.90;99.90;;;;;;7411519;19;19923;-74
2023/05/12 06:30:12;;;;;;;28.45;15.65;;;12.90;99.90;;;;;;7411856;19;20395;-75
2023/05/12 06:32:40;;;;;;;27.80;15.68;;;13.00;99.90;;;;;;7411157;19;20335;-75
2023/05/12 06:35:11;;;;;;;31.95;16.17;;;13.00;99.90;;;;;;7411165;19;19919;-74
2023/05/12 06:37:43;;;;;;;32.38;17.52;;;13.10;99.90;;;;;;7410508;19;19918;-75
2023/05/12 06:40:13;;;;;;;30.52;15.95;;;13.20;99.90;;;;;;7411127;19;20496;-74
2023/05/12 06:42:41;;;;;;;28.50;17.20;;;13.20;99.90;;;;;;7412163;19;20294;-75
2023/05/12 06:45:12;;;;;;;29.27;16.75;;;13.30;99.90;;;;;;7402301;19;19989;-75
2023/05/12 06:47:42;;;;;;;30.38;17.33;;;13.10;99.90;;;;;;7405394;19;19922;-74
2023/05/12 06:50:11;;;;;;;32.13;16.65;;;13.30;99.90;;;;;;7402960;19;19915;-74
2023/05/12 06:52:43;;;;;;;32.13;17.25;;;13.40;99.90;;;;;;7402836;19;19925;-73
2023/05/12 06:55:12;;;;;;;30.95;17.38;;;13.30;99.90;;;;;;7403947;19;19935;-74
2023/05/12 06:57:41;;;;;;;31.65;17.38;;;13.70;99.90;;;;;;7399772;19;19947;-74
2023/05/12 07:00:11;;;;;;;32.38;16.65;;;13.50;99.90;;;;;;7402092;19;19933;-74
2023/05/12 07:02:40;;;;;;;31.63;18.33;;;13.50;99.90;;;;;;7401648;19;19919;-74
2023/05/12 07:05:10;;;;;;;32.22;17.55;;;13.50;99.90;;;;;;7404159;19;20334;-75
2023/05/12 07:07:40;;;;;;;35.28;18.30;;;13.60;99.90;;;;;;7403223;19;19923;-75
2023/05/12 07:10:12;;;;;;;32.60;17.15;;;13.60;99.90;;;;;;7402302;19;19950;-75
2023/05/12 07:12:41;;;;;;;31.38;17.80;;;13.60;99.90;;;;;;7403728;19;19990;-74
2023/05/12 07:15:11;;;;;;;28.17;16.90;;;13.70;99.90;;;;;;7401754;19;19919;-74
2023/05/12 07:17:40;;;;;;;26.13;15.65;;;13.80;99.90;;;;;;7400440;19;19934;-74
2023/05/12 07:20:10;;;;;;;31.65;17.83;;;13.70;99.90;;;;;;7401255;19;19989;-74
2023/05/12 07:22:39;;;;;;;30.27;17.83;;;13.70;99.90;;;;;;7401982;19;19954;-74
2023/05/12 07:25:11;;;;;;;35.22;18.65;;;13.80;99.90;;;;;;7401894;19;20341;-74
2023/05/12 07:27:40;;;;;;;28.90;17.55;;;13.60;99.90;;;;;;7402586;19;19921;-74
2023/05/12 07:30:11;;;;;;;33.97;18.08;;;13.80;99.90;;;;;;7401744;19;20344;-74
2023/05/12 07:32:40;;;;;;;36.75;19.20;;;13.70;99.90;;;;;;7402071;19;19926;-74
2023/05/12 07:35:10;;;;;;;32.22;17.67;;;13.80;99.90;;;;;;7401197;19;19918;-74
2023/05/12 07:37:40;;;;;;;29.70;17.27;;;13.60;99.90;;;;;;7401350;19;19974;-74
2023/05/12 07:40:12;;;;;;;30.90;17.65;;;13.70;99.90;;;;;;7402080;19;19923;-74
2023/05/12 07:42:41;;;;;;;30.92;17.67;;;13.70;99.90;;;;;;7402668;19;19926;-74
2023/05/12 07:45:11;;;;;;;32.30;19.13;;;13.90;99.90;;;;;;7402734;19;19935;-73
2023/05/12 07:47:39;;;;;;;29.92;18.33;;;13.90;99.90;;;;;;7401828;19;19978;-74
2023/05/12 07:50:09;;;;;;;34.28;19.45;;;14.00;99.90;;;;;;7401316;19;19942;-74
2023/05/12 07:52:38;;;;;;;33.30;18.20;;;13.90;99.90;;;;;;7402624;19;20579;-73
2023/05/12 07:55:11;;;;;;;32.83;18.92;;;14.20;99.90;;;;;;7400792;19;19922;-75
2023/05/12 07:57:41;;;;;;;33.58;19.50;;;14.10;99.90;;;;;;7399959;19;19986;-72
2023/05/12 08:00:12;;;;;;;34.88;19.13;;;14.10;99.90;;;;;;7402159;19;19926;-73
2023/05/12 08:02:41;;;;;;;32.28;17.88;;;14.30;99.90;;;;;;7398552;19;19926;-75
2023/05/12 08:05:11;;;;;;;30.00;17.75;;;14.40;99.90;;;;;;7400931;19;19919;-75
2023/05/12 08:07:42;;;;;;;28.05;17.90;;;14.50;99.90;;;;;;7401608;19;20421;-74
2023/05/12 08:10:14;;;;;;;27.55;17.00;;;14.30;99.90;;;;;;7400246;19;20267;-74
2023/05/12 08:12:44;;;;;;;30.45;18.10;;;14.60;99.90;;;;;;7403417;19;19915;-76
2023/05/12 08:15:13;;;;;;;28.02;17.55;;;14.80;99.90;;;;;;7403322;19;20364;-75
2023/05/12 08:17:42;;;;;;;26.15;16.50;;;14.90;99.90;;;;;;7398039;19;19957;-74
2023/05/12 08:20:12;;;;;;;25.88;16.48;;;15.10;99.90;;;;;;7401536;19;19922;-74
2023/05/12 08:22:41;;;;;;;25.33;16.48;;;15.10;99.90;;;;;;7401552;19;20376;-74
2023/05/12 08:25:13;;;;;;;22.40;15.23;;;15.00;99.90;;;;;;7402200;19;19915;-74
2023/05/12 08:27:42;;;;;;;;;;;15.30;99.90;;;;;;7404520;19;19930;-74
2023/05/12 08:30:12;;;;;;;27.90;16.83;;;15.30;99.90;;;;;;7400975;19;19922;-74
2023/05/12 08:32:41;;;;;;;24.17;16.40;;;15.30;99.90;;;;;;7399402;19;19997;-74
2023/05/12 08:35:10;;;;;;;25.13;15.98;;;15.50;99.90;;;;;;7400723;19;19932;-74
2023/05/12 08:37:39;;;;;;;25.95;16.67;;;15.50;99.90;;;;;;7400715;19;19990;-75
2023/05/12 08:40:22;;;;;;;24.00;15.73;;;15.60;99.90;;;;;;7400544;19;19932;-75
2023/05/12 08:42:57;;;;;;;21.63;15.07;;;15.70;99.90;;;;;;7400558;19;19927;-76
2023/05/12 08:45:26;;;;;;;23.13;15.15;;;15.60;99.90;;;;;;7402788;19;19926;-76
2023/05/12 08:47:56;;;;;;;22.88;14.85;;;15.80;99.90;;;;;;7402544;19;19919;-75
2023/05/12 08:50:25;;;;;;;22.70;14.63;;;15.80;99.90;;;;;;7402013;19;20349;-74
2023/05/12 08:52:55;;;;;;;22.05;14.75;;;15.90;99.90;;;;;;7401234;19;19927;-75
2023/05/12 08:55:28;;;;;;;22.48;15.00;;;15.90;99.90;;;;;;7401769;19;19929;-75
2023/05/12 08:57:59;;;;;;;20.77;14.52;;;16.20;99.90;;;;;;7398519;19;19978;-75
2023/05/12 09:00:30;;;;;;;22.23;14.32;;;16.00;99.90;;;;;;7398707;19;19996;-75
2023/05/12 09:03:00;;;;;;;22.48;14.30;;;16.20;99.90;;;;;;7400665;19;19989;-75
2023/05/12 09:05:31;;;;;;;22.92;14.40;;;16.00;99.90;;;;;;7401389;19;19998;-75
2023/05/12 09:08:01;;;;;;;25.58;14.60;;;16.10;99.90;;;;;;7398910;19;19958;-74
2023/05/12 09:10:33;;;;;;;21.05;13.68;;;16.10;99.90;;;;;;7398409;19;20471;-73
2023/05/12 09:13:05;;;;;;;25.02;14.20;;;16.20;99.90;;;;;;7400611;19;20339;-74
2023/05/12 09:15:38;;;;;;;20.10;14.35;;;16.20;99.90;;;;;;7400393;19;19922;-75
2023/05/12 09:18:07;;;;;;;18.30;12.77;;;16.20;99.90;;;;;;7399703;19;20288;-75
2023/05/12 09:20:36;;;;;;;21.27;14.20;;;16.10;99.90;;;;;;7400434;19;19922;-75
2023/05/12 09:23:15;;;;;;;20.83;13.82;;;16.20;99.90;;;;;;7400439;19;19974;-77
2023/05/12 09:25:48;;;;;;;22.00;14.00;;;16.40;99.90;;;;;;7399785;19;19951;-73
2023/05/12 09:28:17;;;;;;;19.55;14.38;;;16.40;99.90;;;;;;7399687;19;19929;-74
2023/05/12 09:30:46;;;;;;;20.92;13.82;;;16.50;99.90;;;;;;7399325;19;20288;-74
2023/05/12 09:33:15;;;;;;;16.40;12.00;;;16.70;99.90;;;;;;7397346;19;19982;-76
2023/05/12 09:35:45;;;;;;;16.83;11.85;;;16.90;99.90;;;;;;7397419;19;19982;-75
2023/05/12 09:38:16;;;;;;;20.83;13.52;;;17.00;99.90;;;;;;7395382;19;19923;-75
2023/05/12 09:40:47;;;;;;;18.38;12.38;;;17.20;99.90;;;;;;7399071;19;20537;-75
2023/05/12 09:43:18;;;;;;;16.42;12.50;;;17.30;99.90;;;;;;7400134;19;19922;-75
2023/05/12 09:45:49;;;;;;;15.18;10.73;;;17.40;99.90;;;;;;7399336;19;20443;-74
2023/05/12 09:48:18;;;;;;;14.88;11.32;;;17.50;99.90;;;;;;7397532;19;19930;-75
2023/05/12 09:50:49;;;;;;;15.77;11.25;;;17.40;99.90;;;;;;7401020;19;19927;-74
2023/05/12 09:53:21;;;;;;;14.45;10.70;;;17.60;99.90;;;;;;7399802;19;19940;-75
2023/05/12 09:55:53;;;;;;;13.52;10.55;;;17.60;99.90;;;;;;7394343;19;20703;-75
2023/05/12 09:58:23;;;;;;;12.13;10.00;;;17.60;99.90;;;;;;7388503;19;19923;-75
2023/05/12 10:00:54;;;;;;;13.02;10.10;;;17.80;99.90;;;;;;7388819;19;19919;-74
2023/05/12 10:03:27;;;;;;;14.75;9.77;;;17.70;99.90;;;;;;7392092;19;19922;-74
2023/05/12 10:06:00;;;;;;;10.25;8.02;;;17.80;99.90;;;;;;7395018;19;19930;-75
2023/05/12 10:08:31;;;;;;;10.52;9.05;;;17.70;99.90;;;;;;7396615;19;19941;-74
2023/05/12 10:11:06;;;;;;;13.13;9.60;;;17.90;99.90;;;;;;7394727;19;19970;-74
2023/05/12 10:13:35;;;;;;;10.25;7.72;;;17.80;99.90;;;;;;7393125;19;19919;-74
2023/05/12 10:16:05;;;;;;;12.57;8.60;;;17.90;99.90;;;;;;7396490;19;20551;-74
2023/05/12 10:18:35;;;;;;;13.95;9.00;;;17.80;99.90;;;;;;7396338;19;19974;-74
2023/05/12 10:21:05;;;;;;;11.20;8.38;;;17.70;99.90;;;;;;7401775;19;19914;-74
2023/05/12 10:23:34;;;;;;;11.93;8.50;;;17.90;99.90;;;;;;7400935;19;19985;-75
2023/05/12 10:26:06;;;;;;;9.65;8.07;;;18.00;99.90;;;;;;7402220;19;19974;-74
2023/05/12 10:28:35;;;;;;;11.20;7.13;;;18.20;99.90;;;;;;7401752;19;20360;-74
2023/05/12 10:31:07;;;;;;;9.80;7.15;;;18.40;99.90;;;;;;7402211;19;19926;-75
2023/05/12 10:33:36;;;;;;;9.20;6.65;;;18.40;99.90;;;;;;7400427;19;20396;-75
2023/05/12 10:36:05;;;;;;;9.52;6.45;;;18.50;99.90;;;;;;7402189;19;19926;-75
2023/05/12 10:38:38;;;;;;;9.40;6.18;;;18.50;99.90;;;;;;7396502;19;19922;-73
2023/05/12 10:41:10;;;;;;;7.22;5.90;;;18.50;99.90;;;;;;7399471;19;19919;-79
2023/05/12 10:43:44;;;;;;;7.55;6.53;;;18.70;99.90;;;;;;7405308;19;19915;-78
2023/05/12 10:46:19;;;;;;;9.88;6.15;;;18.70;99.90;;;;;;7400020;19;20383;-79
2023/05/12 10:49:01;;;;;;;7.80;5.38;;;18.60;99.90;;;;;;7402173;19;19944;-78
2023/05/12 10:51:32;;;;;;;7.32;6.10;;;18.80;99.90;;;;;;7400260;19;20214;-82
2023/05/12 10:54:02;;;;;;;6.32;5.68;;;18.80;99.90;;;;;;7404377;19;19988;-81
2023/05/12 10:56:45;;;;;;;8.10;5.47;;;18.90;99.90;;;;;;7399766;19;19990;-79
2023/05/12 10:59:17;;;;;;;7.57;5.75;;;19.00;99.90;;;;;;7397825;19;19915;-76
2023/05/12 11:01:59;;;;;;;7.50;5.78;;;19.10;99.90;;;;;;7397417;19;19951;-77
2023/05/12 11:04:40;;;;;;;6.82;5.47;;;19.40;99.90;;;;;;7397738;19;19921;-76
2023/05/12 11:07:09;;;;;;;9.30;5.20;;;19.50;99.90;;;;;;7400818;19;19922;-79
2023/05/12 11:09:40;;;;;;;6.85;4.50;;;19.50;99.90;;;;;;7400258;19;19923;-76
2023/05/12 11:12:14;;;;;;;5.45;4.53;;;19.80;99.90;;;;;;7400020;19;19919;-79
2023/05/12 11:14:45;;;;;;;7.03;3.83;;;19.80;99.90;;;;;;7404397;19;20236;-77
2023/05/12 11:17:15;;;;;;;7.53;3.70;;;19.80;99.90;;;;;;7407314;19;19957;-79
2023/05/12 11:19:48;;;;;;;6.65;3.67;;;20.00;99.90;;;;;;7408306;19;19918;-86
2023/05/12 11:22:20;;;;;;;5.68;3.50;;;20.10;99.90;;;;;;7401918;19;19943;-82
2023/05/12 11:24:51;;;;;;;3.80;3.35;;;20.10;99.90;;;;;;7403108;19;19911;-79
2023/05/12 11:27:24;;;;;;;3.60;3.30;;;20.00;99.90;;;;;;7399912;19;20433;-79
2023/05/12 11:30:00;;;;;;;5.85;3.25;;;20.20;99.90;;;;;;7396854;19;19923;-78
2023/05/12 11:32:30;;;;;;;5.80;3.33;;;20.40;99.90;;;;;;7401990;19;20287;-80
2023/05/12 11:35:10;;;;;;;5.07;3.78;;;20.40;99.90;;;;;;7398869;19;19923;-76
2023/05/12 11:37:40;;;;;;;5.97;3.53;;;20.60;99.90;;;;;;7397290;19;19935;-77
2023/05/12 11:40:16;;;;;;;5.45;3.35;;;20.50;99.90;;;;;;7394809;19;19929;-76
2023/05/12 11:42:51;;;;;;;4.55;3.50;;;20.80;99.90;;;;;;7364532;19;19954;-77
2023/05/12 11:45:24;;;;;;;4.97;3.45;;;20.90;99.90;;;;;;7396997;19;20407;-77
2023/05/12 11:47:53;;;;;;;3.28;2.80;;;21.10;99.90;;;;;;7380178;19;19933;-79
2023/05/12 11:50:26;;;;;;;5.63;3.33;;;21.30;99.90;;;;;;7398765;19;20407;-77
2023/05/12 11:52:56;;;;;;;4.65;3.70;;;21.30;99.90;;;;;;7400322;19;19918;-77
2023/05/12 11:55:26;;;;;;;3.67;3.05;;;21.30;99.90;;;;;;7400798;19;19919;-82
2023/05/12 11:58:02;;;;;;;4.75;3.20;;;21.50;99.90;;;;;;7399726;19;19981;-79
2023/05/12 12:00:33;;;;;;;;;;;21.50;99.90;;;;;;7403190;19;19929;-80
2023/05/12 12:03:12;;;;;;;3.90;2.45;;;21.80;99.90;;;;;;7401273;19;19922;-78
2023/05/12 12:05:42;;;;;;;2.97;2.25;;;21.70;99.90;;;;;;7400740;19;19921;-75
2023/05/12 12:08:14;;;;;;;6.47;3.17;;;21.90;99.90;;;;;;7398795;19;21896;-76
2023/05/12 12:10:46;;;;;;;6.70;4.00;;;21.90;99.90;;;;;;7399506;19;19919;-77
2023/05/12 12:13:22;;;;;;;3.38;2.38;;;22.00;99.90;;;;;;7394964;19;19974;-76
2023/05/12 12:15:51;;;;;;;6.00;2.60;;;22.30;99.90;;;;;;7398804;19;19930;-76
2023/05/12 12:18:20;;;;;;;4.40;2.63;;;22.20;99.90;;;;;;7398278;19;19923;-76
2023/05/12 12:20:49;;;;;;;4.20;2.80;;;22.40;99.90;;;;;;7398977;19;20242;-77
2023/05/12 12:23:18;;;;;;;4.47;2.63;;;22.50;99.90;;;;;;7399619;19;20336;-76
2023/05/12 12:25:47;;;;;;;3.92;2.25;;;21.80;99.90;;;;;;7403134;19;19922;-76
2023/05/12 12:28:19;;;;;;;5.55;2.55;;;22.70;99.90;;;;;;7400650;19;19952;-76
2023/05/12 12:30:48;;;;;;;;;;;22.70;99.90;;;;;;7406516;19;19978;-77
2023/05/12 12:33:17;;;;;;;;;;;22.70;99.90;;;;;;7405223;19;19938;-76
2023/05/12 12:35:46;;;;;;;3.60;1.75;;;22.80;99.90;;;;;;7403493;19;20273;-77
2023/05/12 12:38:15;;;;;;;3.00;1.63;;;23.00;99.90;;;;;;7402081;19;19946;-77
2023/05/12 12:40:44;;;;;;;3.47;1.60;;;23.10;99.90;;;;;;7403939;19;19919;-76
2023/05/12 12:43:13;;;;;;;3.08;2.00;;;23.10;99.90;;;;;;7399551;19;19922;-76
2023/05/12 12:45:45;;;;;;;4.60;1.98;;;23.30;99.90;;;;;;7402793;19;19925;-77
2023/05/12 12:48:13;;;;;;;;;;;23.40;99.90;;;;;;7404066;19;19974;-76